sensor_id;sensor_type;location;lat;lon;timestamp;temperature;humidity
290;DHT22;13193;48.874;9.086;2022-08-21T00:00:45;15.50;1.00
290;DHT22;13193;48.874;9.086;2022-08-21T00:03:11;15.60;1.00
290;DHT22;13193;48.874;9.086;2022-08-21T00:05:41;15.60;1.00
290;DHT22;13193;48.874;9.086;2022-08-21T00:08:07;15.60;1.00
290;DHT22;13193;48.874;9.086;2022-08-21T00:10:33;15.60;1.00
290;DHT22;13193;48.874;9.086;2022-08-21T00:13:01;15.50;1.00
290;DHT22;13193;48.874;9.086;2022-08-21T00:15:29;15.50;1.00
290;DHT22;13193;48.874;9.086;2022-08-21T00:17:55;15.50;1.00
290;DHT22;13193;48.874;9.086;2022-08-21T00:20:22;15.60;1.00
290;DHT22;13193;48.874;9.086;2022-08-21T00:22:49;15.50;1.00
290;DHT22;13193;48.874;9.086;2022-08-21T00:25:15;15.50;1.00
290;DHT22;13193;48.874;9.086;2022-08-21T00:27:42;15.40;1.00
290;DHT22;13193;48.874;9.086;2022-08-21T00:30:10;15.40;1.00
290;DHT22;13193;48.874;9.086;2022-08-21T00:32:37;15.40;1.00
290;DHT22;13193;48.874;9.086;2022-08-21T00:35:06;15.40;1.00
290;DHT22;13193;48.874;9.086;2022-08-21T00:37:32;15.40;1.00
290;DHT22;13193;48.874;9.086;2022-08-21T00:39:57;15.40;1.00
290;DHT22;13193;48.874;9.086;2022-08-21T00:42:23;15.40;1.00
290;DHT22;13193;48.874;9.086;2022-08-21T00:44:50;15.40;1.00
290;DHT22;13193;48.874;9.086;2022-08-21T00:47:17;15.30;1.00
290;DHT22;13193;48.874;9.086;2022-08-21T00:49:42;15.30;1.00
290;DHT22;13193;48.874;9.086;2022-08-21T00:52:12;15.30;1.00
290;DHT22;13193;48.874;9.086;2022-08-21T00:54:40;15.30;1.00
290;DHT22;13193;48.874;9.086;2022-08-21T00:57:15;15.30;1.00
290;DHT22;13193;48.874;9.086;2022-08-21T00:59:44;16.50;1.00
290;DHT22;13193;48.874;9.086;2022-08-21T01:02:11;15.30;1.00
290;DHT22;13193;48.874;9.086;2022-08-21T01:04:37;15.30;1.00
290;DHT22;13193;48.874;9.086;2022-08-21T01:07:03;15.30;1.00
290;DHT22;13193;48.874;9.086;2022-08-21T01:09:29;15.20;1.00
290;DHT22;13193;48.874;9.086;2022-08-21T01:11:55;15.20;1.00
290;DHT22;13193;48.874;9.086;2022-08-21T01:14:20;15.40;1.00
290;DHT22;13193;48.874;9.086;2022-08-21T01:16:50;15.20;1.00
290;DHT22;13193;48.874;9.086;2022-08-21T01:19:18;15.20;1.00
290;DHT22;13193;48.874;9.086;2022-08-21T01:21:45;15.20;1.00
290;DHT22;13193;48.874;9.086;2022-08-21T01:24:11;14.90;1.00
290;DHT22;13193;48.874;9.086;2022-08-21T01:26:38;15.20;1.00
290;DHT22;13193;48.874;9.086;2022-08-21T01:29:15;15.20;1.00
290;DHT22;13193;48.874;9.086;2022-08-21T01:31:41;14.90;1.00
290;DHT22;13193;48.874;9.086;2022-08-21T01:34:09;14.80;1.00
290;DHT22;13193;48.874;9.086;2022-08-21T01:36:35;14.70;1.00
290;DHT22;13193;48.874;9.086;2022-08-21T01:39:03;14.70;1.00
290;DHT22;13193;48.874;9.086;2022-08-21T01:41:28;14.60;1.00
290;DHT22;13193;48.874;9.086;2022-08-21T01:43:54;14.50;1.00
290;DHT22;13193;48.874;9.086;2022-08-21T01:46:20;15.80;1.00
290;DHT22;13193;48.874;9.086;2022-08-21T01:48:45;14.40;1.00
290;DHT22;13193;48.874;9.086;2022-08-21T01:51:12;14.30;1.00
290;DHT22;13193;48.874;9.086;2022-08-21T01:53:37;14.30;1.00
290;DHT22;13193;48.874;9.086;2022-08-21T01:56:06;14.20;1.00
290;DHT22;13193;48.874;9.086;2022-08-21T01:58:32;14.20;1.00
290;DHT22;13193;48.874;9.086;2022-08-21T02:00:59;14.10;1.00
290;DHT22;13193;48.874;9.086;2022-08-21T02:03:27;14.00;1.00
290;DHT22;13193;48.874;9.086;2022-08-21T02:05:53;14.00;1.00
290;DHT22;13193;48.874;9.086;2022-08-21T02:08:19;13.90;1.00
290;DHT22;13193;48.874;9.086;2022-08-21T02:10:48;13.90;1.00
290;DHT22;13193;48.874;9.086;2022-08-21T02:13:15;13.80;1.00
290;DHT22;13193;48.874;9.086;2022-08-21T02:15:40;14.10;1.00
290;DHT22;13193;48.874;9.086;2022-08-21T02:18:06;13.70;1.00
290;DHT22;13193;48.874;9.086;2022-08-21T02:20:42;15.20;1.00
290;DHT22;13193;48.874;9.086;2022-08-21T02:23:10;13.60;1.00
290;DHT22;13193;48.874;9.086;2022-08-21T02:25:36;13.60;1.00
290;DHT22;13193;48.874;9.086;2022-08-21T02:28:06;13.50;1.00
290;DHT22;13193;48.874;9.086;2022-08-21T02:30:36;13.50;1.00
290;DHT22;13193;48.874;9.086;2022-08-21T02:33:06;13.40;1.00
290;DHT22;13193;48.874;9.086;2022-08-21T02:35:32;14.30;1.00
290;DHT22;13193;48.874;9.086;2022-08-21T02:38:04;14.00;1.00
290;DHT22;13193;48.874;9.086;2022-08-21T02:40:33;13.30;1.00
290;DHT22;13193;48.874;9.086;2022-08-21T02:43:00;13.30;1.00
290;DHT22;13193;48.874;9.086;2022-08-21T02:45:27;13.50;1.00
290;DHT22;13193;48.874;9.086;2022-08-21T02:47:58;13.20;1.00
290;DHT22;13193;48.874;9.086;2022-08-21T02:50:31;13.10;1.00
290;DHT22;13193;48.874;9.086;2022-08-21T02:52:57;13.10;1.00
290;DHT22;13193;48.874;9.086;2022-08-21T02:55:25;13.10;1.00
290;DHT22;13193;48.874;9.086;2022-08-21T02:57:53;13.40;1.00
290;DHT22;13193;48.874;9.086;2022-08-21T03:00:19;12.60;1.00
290;DHT22;13193;48.874;9.086;2022-08-21T03:02:47;13.00;1.00
290;DHT22;13193;48.874;9.086;2022-08-21T03:05:14;13.00;1.00
290;DHT22;13193;48.874;9.086;2022-08-21T03:07:41;12.90;1.00
290;DHT22;13193;48.874;9.086;2022-08-21T03:10:07;13.20;1.00
290;DHT22;13193;48.874;9.086;2022-08-21T03:12:33;12.80;1.00
290;DHT22;13193;48.874;9.086;2022-08-21T03:15:01;12.70;1.00
290;DHT22;13193;48.874;9.086;2022-08-21T03:17:27;12.70;1.00
290;DHT22;13193;48.874;9.086;2022-08-21T03:19:52;12.70;1.00
290;DHT22;13193;48.874;9.086;2022-08-21T03:22:18;12.60;1.00
290;DHT22;13193;48.874;9.086;2022-08-21T03:24:43;12.90;1.00
290;DHT22;13193;48.874;9.086;2022-08-21T03:27:10;12.40;1.00
290;DHT22;13193;48.874;9.086;2022-08-21T03:29:38;12.60;1.00
290;DHT22;13193;48.874;9.086;2022-08-21T03:32:04;12.50;1.00
290;DHT22;13193;48.874;9.086;2022-08-21T03:34:30;12.50;1.00
290;DHT22;13193;48.874;9.086;2022-08-21T03:36:55;12.30;1.00
290;DHT22;13193;48.874;9.086;2022-08-21T03:39:21;12.50;1.00
290;DHT22;13193;48.874;9.086;2022-08-21T03:41:47;12.50;1.00
290;DHT22;13193;48.874;9.086;2022-08-21T03:44:13;12.50;1.00
290;DHT22;13193;48.874;9.086;2022-08-21T03:46:39;12.40;1.00
290;DHT22;13193;48.874;9.086;2022-08-21T03:49:06;12.90;1.00
290;DHT22;13193;48.874;9.086;2022-08-21T03:51:31;12.40;1.00
290;DHT22;13193;48.874;9.086;2022-08-21T03:53:59;12.40;1.00
290;DHT22;13193;48.874;9.086;2022-08-21T03:56:24;12.30;1.00
290;DHT22;13193;48.874;9.086;2022-08-21T03:58:50;12.30;1.00
290;DHT22;13193;48.874;9.086;2022-08-21T04:01:16;12.20;1.00
290;DHT22;13193;48.874;9.086;2022-08-21T04:03:41;12.20;1.00
290;DHT22;13193;48.874;9.086;2022-08-21T04:06:07;12.20;1.00
290;DHT22;13193;48.874;9.086;2022-08-21T04:08:33;12.10;1.00
290;DHT22;13193;48.874;9.086;2022-08-21T04:11:00;12.10;1.00
290;DHT22;13193;48.874;9.086;2022-08-21T04:13:25;13.30;1.00
290;DHT22;13193;48.874;9.086;2022-08-21T04:15:53;12.10;1.00
290;DHT22;13193;48.874;9.086;2022-08-21T04:18:20;12.10;1.00
290;DHT22;13193;48.874;9.086;2022-08-21T04:20:48;12.10;1.00
290;DHT22;13193;48.874;9.086;2022-08-21T04:23:14;12.00;1.00
290;DHT22;13193;48.874;9.086;2022-08-21T04:25:39;12.00;1.00
290;DHT22;13193;48.874;9.086;2022-08-21T04:28:05;12.00;1.00
290;DHT22;13193;48.874;9.086;2022-08-21T04:30:32;12.00;1.00
290;DHT22;13193;48.874;9.086;2022-08-21T04:32:58;12.00;1.00
290;DHT22;13193;48.874;9.086;2022-08-21T04:35:26;12.00;1.00
290;DHT22;13193;48.874;9.086;2022-08-21T04:37:52;12.00;1.00
290;DHT22;13193;48.874;9.086;2022-08-21T04:40:19;12.10;1.00
290;DHT22;13193;48.874;9.086;2022-08-21T04:42:51;12.00;1.00
290;DHT22;13193;48.874;9.086;2022-08-21T04:45:26;12.10;1.00
290;DHT22;13193;48.874;9.086;2022-08-21T04:47:55;12.10;1.00
290;DHT22;13193;48.874;9.086;2022-08-21T04:50:31;12.20;1.00
290;DHT22;13193;48.874;9.086;2022-08-21T04:53:01;12.20;1.00
290;DHT22;13193;48.874;9.086;2022-08-21T04:55:26;12.30;1.00
290;DHT22;13193;48.874;9.086;2022-08-21T04:57:54;13.60;1.00
290;DHT22;13193;48.874;9.086;2022-08-21T05:00:23;12.40;1.00
290;DHT22;13193;48.874;9.086;2022-08-21T05:02:51;12.50;1.00
290;DHT22;13193;48.874;9.086;2022-08-21T05:05:21;12.60;1.00
290;DHT22;13193;48.874;9.086;2022-08-21T05:07:48;12.60;1.00
290;DHT22;13193;48.874;9.086;2022-08-21T05:10:16;12.70;1.00
290;DHT22;13193;48.874;9.086;2022-08-21T05:12:42;12.80;1.00
290;DHT22;13193;48.874;9.086;2022-08-21T05:15:10;12.90;1.00
290;DHT22;13193;48.874;9.086;2022-08-21T05:17:37;13.10;1.00
290;DHT22;13193;48.874;9.086;2022-08-21T05:20:03;13.40;1.00
290;DHT22;13193;48.874;9.086;2022-08-21T05:22:29;13.80;1.00
290;DHT22;13193;48.874;9.086;2022-08-21T05:24:57;14.30;1.00
290;DHT22;13193;48.874;9.086;2022-08-21T05:27:28;14.70;1.00
290;DHT22;13193;48.874;9.086;2022-08-21T05:29:57;15.10;1.00
290;DHT22;13193;48.874;9.086;2022-08-21T05:32:23;15.40;1.00
290;DHT22;13193;48.874;9.086;2022-08-21T05:34:49;15.70;1.00
290;DHT22;13193;48.874;9.086;2022-08-21T05:37:16;16.60;1.00
290;DHT22;13193;48.874;9.086;2022-08-21T05:39:41;16.10;1.00
290;DHT22;13193;48.874;9.086;2022-08-21T05:42:09;16.20;1.00
290;DHT22;13193;48.874;9.086;2022-08-21T05:44:35;16.20;1.00
290;DHT22;13193;48.874;9.086;2022-08-21T05:47:06;16.30;1.00
290;DHT22;13193;48.874;9.086;2022-08-21T05:49:32;16.30;1.00
290;DHT22;13193;48.874;9.086;2022-08-21T05:51:58;16.30;1.00
290;DHT22;13193;48.874;9.086;2022-08-21T05:54:24;16.40;1.00
290;DHT22;13193;48.874;9.086;2022-08-21T05:56:50;16.50;1.00
290;DHT22;13193;48.874;9.086;2022-08-21T05:59:17;16.70;1.00
290;DHT22;13193;48.874;9.086;2022-08-21T06:01:43;16.60;1.00
290;DHT22;13193;48.874;9.086;2022-08-21T06:04:10;16.10;1.00
290;DHT22;13193;48.874;9.086;2022-08-21T06:06:39;16.70;1.00
290;DHT22;13193;48.874;9.086;2022-08-21T06:09:09;16.70;1.00
290;DHT22;13193;48.874;9.086;2022-08-21T06:11:37;16.80;1.00
290;DHT22;13193;48.874;9.086;2022-08-21T06:14:03;16.90;1.00
290;DHT22;13193;48.874;9.086;2022-08-21T06:16:31;17.00;1.00
290;DHT22;13193;48.874;9.086;2022-08-21T06:18:57;17.10;1.00
290;DHT22;13193;48.874;9.086;2022-08-21T06:21:23;17.20;1.00
290;DHT22;13193;48.874;9.086;2022-08-21T06:23:53;17.20;1.00
290;DHT22;13193;48.874;9.086;2022-08-21T06:26:19;17.30;1.00
290;DHT22;13193;48.874;9.086;2022-08-21T06:28:45;18.10;1.00
290;DHT22;13193;48.874;9.086;2022-08-21T06:31:17;17.50;1.00
290;DHT22;13193;48.874;9.086;2022-08-21T06:33:45;17.50;1.00
290;DHT22;13193;48.874;9.086;2022-08-21T06:36:12;17.50;1.00
290;DHT22;13193;48.874;9.086;2022-08-21T06:38:38;17.60;1.00
290;DHT22;13193;48.874;9.086;2022-08-21T06:41:04;17.70;1.00
290;DHT22;13193;48.874;9.086;2022-08-21T06:43:30;17.70;1.00
290;DHT22;13193;48.874;9.086;2022-08-21T06:45:56;17.80;1.00
290;DHT22;13193;48.874;9.086;2022-08-21T06:48:22;17.90;1.00
290;DHT22;13193;48.874;9.086;2022-08-21T06:50:48;18.00;1.00
290;DHT22;13193;48.874;9.086;2022-08-21T06:53:17;18.10;1.00
290;DHT22;13193;48.874;9.086;2022-08-21T06:55:43;18.20;1.00
290;DHT22;13193;48.874;9.086;2022-08-21T06:58:12;18.30;1.00
290;DHT22;13193;48.874;9.086;2022-08-21T07:00:49;18.40;1.00
290;DHT22;13193;48.874;9.086;2022-08-21T07:03:25;18.50;1.00
290;DHT22;13193;48.874;9.086;2022-08-21T07:05:51;18.60;1.00
290;DHT22;13193;48.874;9.086;2022-08-21T07:08:17;18.70;1.00
290;DHT22;13193;48.874;9.086;2022-08-21T07:10:46;18.80;1.00
290;DHT22;13193;48.874;9.086;2022-08-21T07:13:15;19.00;1.00
290;DHT22;13193;48.874;9.086;2022-08-21T07:15:40;19.10;1.00
290;DHT22;13193;48.874;9.086;2022-08-21T07:18:06;19.20;1.00
290;DHT22;13193;48.874;9.086;2022-08-21T07:20:33;19.40;1.00
290;DHT22;13193;48.874;9.086;2022-08-21T07:23:02;19.50;1.00
290;DHT22;13193;48.874;9.086;2022-08-21T07:25:31;19.50;1.00
290;DHT22;13193;48.874;9.086;2022-08-21T07:27:56;19.70;1.00
290;DHT22;13193;48.874;9.086;2022-08-21T07:30:23;19.80;1.00
290;DHT22;13193;48.874;9.086;2022-08-21T07:32:49;19.10;1.00
290;DHT22;13193;48.874;9.086;2022-08-21T07:35:16;20.10;1.00
290;DHT22;13193;48.874;9.086;2022-08-21T07:37:41;20.00;1.00
290;DHT22;13193;48.874;9.086;2022-08-21T07:40:08;20.10;1.00
290;DHT22;13193;48.874;9.086;2022-08-21T07:42:34;20.50;1.00
290;DHT22;13193;48.874;9.086;2022-08-21T07:45:00;20.30;1.00
290;DHT22;13193;48.874;9.086;2022-08-21T07:47:25;20.40;1.00
290;DHT22;13193;48.874;9.086;2022-08-21T07:49:54;20.50;1.00
290;DHT22;13193;48.874;9.086;2022-08-21T07:52:20;20.60;1.00
290;DHT22;13193;48.874;9.086;2022-08-21T07:54:46;20.60;1.00
290;DHT22;13193;48.874;9.086;2022-08-21T07:57:11;20.70;1.00
290;DHT22;13193;48.874;9.086;2022-08-21T07:59:37;20.70;1.00
290;DHT22;13193;48.874;9.086;2022-08-21T08:02:03;20.90;1.00
290;DHT22;13193;48.874;9.086;2022-08-21T08:04:28;20.90;1.00
290;DHT22;13193;48.874;9.086;2022-08-21T08:06:57;20.90;1.00
290;DHT22;13193;48.874;9.086;2022-08-21T08:09:22;21.00;1.00
290;DHT22;13193;48.874;9.086;2022-08-21T08:11:48;21.00;1.00
290;DHT22;13193;48.874;9.086;2022-08-21T08:14:16;21.10;1.00
290;DHT22;13193;48.874;9.086;2022-08-21T08:16:42;21.20;1.00
290;DHT22;13193;48.874;9.086;2022-08-21T08:19:08;21.30;1.00
290;DHT22;13193;48.874;9.086;2022-08-21T08:21:34;21.40;1.00
290;DHT22;13193;48.874;9.086;2022-08-21T08:24:02;21.50;1.00
290;DHT22;13193;48.874;9.086;2022-08-21T08:26:28;21.50;1.00
290;DHT22;13193;48.874;9.086;2022-08-21T08:28:53;21.60;1.00
290;DHT22;13193;48.874;9.086;2022-08-21T08:31:22;21.60;1.00
290;DHT22;13193;48.874;9.086;2022-08-21T08:33:48;21.80;1.00
290;DHT22;13193;48.874;9.086;2022-08-21T08:36:18;21.80;1.00
290;DHT22;13193;48.874;9.086;2022-08-21T08:38:45;21.90;1.00
290;DHT22;13193;48.874;9.086;2022-08-21T08:41:17;22.00;1.00
290;DHT22;13193;48.874;9.086;2022-08-21T08:43:50;22.10;1.00
290;DHT22;13193;48.874;9.086;2022-08-21T08:46:20;22.10;1.00
290;DHT22;13193;48.874;9.086;2022-08-21T08:48:52;22.10;1.00
290;DHT22;13193;48.874;9.086;2022-08-21T08:51:36;22.20;1.00
290;DHT22;13193;48.874;9.086;2022-08-21T08:54:08;22.30;1.00
290;DHT22;13193;48.874;9.086;2022-08-21T08:56:35;22.30;1.00
290;DHT22;13193;48.874;9.086;2022-08-21T08:59:16;22.40;1.00
290;DHT22;13193;48.874;9.086;2022-08-21T09:01:44;21.40;1.00
290;DHT22;13193;48.874;9.086;2022-08-21T09:04:11;22.50;1.00
290;DHT22;13193;48.874;9.086;2022-08-21T09:10:02;22.60;1.00
290;DHT22;13193;48.874;9.086;2022-08-21T09:18:25;22.70;1.00
290;DHT22;13193;48.874;9.086;2022-08-21T09:23:42;22.10;1.00
290;DHT22;13193;48.874;9.086;2022-08-21T09:26:15;22.90;1.00
290;DHT22;13193;48.874;9.086;2022-08-21T09:28:42;23.00;1.00
290;DHT22;13193;48.874;9.086;2022-08-21T09:31:28;23.10;1.00
290;DHT22;13193;48.874;9.086;2022-08-21T09:34:06;23.10;1.00
290;DHT22;13193;48.874;9.086;2022-08-21T09:36:44;23.20;1.00
290;DHT22;13193;48.874;9.086;2022-08-21T09:39:12;23.20;1.00
290;DHT22;13193;48.874;9.086;2022-08-21T09:41:39;23.30;1.00
290;DHT22;13193;48.874;9.086;2022-08-21T09:44:06;23.30;1.00
290;DHT22;13193;48.874;9.086;2022-08-21T09:46:32;23.30;1.00
290;DHT22;13193;48.874;9.086;2022-08-21T09:49:00;23.40;1.00
290;DHT22;13193;48.874;9.086;2022-08-21T09:51:29;23.40;1.00
290;DHT22;13193;48.874;9.086;2022-08-21T09:56:37;23.50;1.00
290;DHT22;13193;48.874;9.086;2022-08-21T09:59:31;23.60;1.00
290;DHT22;13193;48.874;9.086;2022-08-21T10:02:00;23.70;1.00
290;DHT22;13193;48.874;9.086;2022-08-21T10:04:34;23.80;1.00
290;DHT22;13193;48.874;9.086;2022-08-21T10:07:28;23.90;1.00
290;DHT22;13193;48.874;9.086;2022-08-21T10:10:08;23.80;1.00
290;DHT22;13193;48.874;9.086;2022-08-21T10:18:41;23.90;1.00
290;DHT22;13193;48.874;9.086;2022-08-21T10:21:20;23.90;1.00
290;DHT22;13193;48.874;9.086;2022-08-21T10:32:05;24.20;1.00
290;DHT22;13193;48.874;9.086;2022-08-21T10:35:02;24.30;1.00
290;DHT22;13193;48.874;9.086;2022-08-21T10:43:30;24.30;1.00
290;DHT22;13193;48.874;9.086;2022-08-21T10:55:11;24.30;1.00
290;DHT22;13193;48.874;9.086;2022-08-21T11:00:23;24.40;1.00
290;DHT22;13193;48.874;9.086;2022-08-21T11:03:12;24.40;1.00
290;DHT22;13193;48.874;9.086;2022-08-21T11:08:12;24.40;1.00
290;DHT22;13193;48.874;9.086;2022-08-21T11:13:27;24.30;1.00
290;DHT22;13193;48.874;9.086;2022-08-21T11:18:32;24.40;1.00
290;DHT22;13193;48.874;9.086;2022-08-21T11:24:40;24.60;1.00
290;DHT22;13193;48.874;9.086;2022-08-21T11:29:54;24.70;1.00
290;DHT22;13193;48.874;9.086;2022-08-21T11:32:57;24.90;1.00
290;DHT22;13193;48.874;9.086;2022-08-21T11:38:40;25.10;1.00
290;DHT22;13193;48.874;9.086;2022-08-21T11:41:29;25.20;1.00
290;DHT22;13193;48.874;9.086;2022-08-21T11:44:23;25.20;1.00
290;DHT22;13193;48.874;9.086;2022-08-21T11:47:09;25.20;1.00
290;DHT22;13193;48.874;9.086;2022-08-21T11:49:57;25.10;1.00
290;DHT22;13193;48.874;9.086;2022-08-21T11:52:41;25.00;1.00
290;DHT22;13193;48.874;9.086;2022-08-21T11:55:19;25.10;1.00
290;DHT22;13193;48.874;9.086;2022-08-21T11:58:10;25.20;1.00
290;DHT22;13193;48.874;9.086;2022-08-21T12:03:15;25.40;1.00
290;DHT22;13193;48.874;9.086;2022-08-21T12:05:56;25.40;1.00
290;DHT22;13193;48.874;9.086;2022-08-21T12:08:42;25.50;1.00
290;DHT22;13193;48.874;9.086;2022-08-21T12:11:29;25.50;1.00
290;DHT22;13193;48.874;9.086;2022-08-21T12:16:38;25.70;1.00
290;DHT22;13193;48.874;9.086;2022-08-21T12:19:07;25.80;1.00
290;DHT22;13193;48.874;9.086;2022-08-21T12:21:48;25.80;1.00
290;DHT22;13193;48.874;9.086;2022-08-21T12:27:30;25.80;1.00
290;DHT22;13193;48.874;9.086;2022-08-21T12:30:03;25.90;1.00
290;DHT22;13193;48.874;9.086;2022-08-21T12:32:43;25.80;1.00
290;DHT22;13193;48.874;9.086;2022-08-21T12:35:12;25.90;1.00
290;DHT22;13193;48.874;9.086;2022-08-21T12:37:42;25.90;1.00
290;DHT22;13193;48.874;9.086;2022-08-21T12:40:25;25.90;1.00
290;DHT22;13193;48.874;9.086;2022-08-21T12:42:57;26.10;1.00
290;DHT22;13193;48.874;9.086;2022-08-21T12:45:50;26.10;1.00
290;DHT22;13193;48.874;9.086;2022-08-21T12:50:54;26.10;1.00
290;DHT22;13193;48.874;9.086;2022-08-21T12:53:50;26.30;1.00
290;DHT22;13193;48.874;9.086;2022-08-21T12:56:22;26.20;1.00
290;DHT22;13193;48.874;9.086;2022-08-21T12:58:50;26.20;1.00
290;DHT22;13193;48.874;9.086;2022-08-21T13:04:09;26.20;1.00
290;DHT22;13193;48.874;9.086;2022-08-21T13:06:41;26.20;1.00
290;DHT22;13193;48.874;9.086;2022-08-21T13:09:13;26.30;1.00
290;DHT22;13193;48.874;9.086;2022-08-21T13:11:43;26.50;1.00
290;DHT22;13193;48.874;9.086;2022-08-21T13:14:39;26.50;1.00
290;DHT22;13193;48.874;9.086;2022-08-21T13:17:06;26.40;1.00
290;DHT22;13193;48.874;9.086;2022-08-21T13:19:33;26.30;1.00
290;DHT22;13193;48.874;9.086;2022-08-21T13:22:00;26.30;1.00
290;DHT22;13193;48.874;9.086;2022-08-21T13:24:32;26.50;1.00
290;DHT22;13193;48.874;9.086;2022-08-21T13:27:00;26.50;1.00
290;DHT22;13193;48.874;9.086;2022-08-21T13:29:31;26.40;1.00
290;DHT22;13193;48.874;9.086;2022-08-21T13:32:05;26.40;1.00
290;DHT22;13193;48.874;9.086;2022-08-21T13:34:36;26.40;1.00
290;DHT22;13193;48.874;9.086;2022-08-21T13:37:07;26.50;1.00
290;DHT22;13193;48.874;9.086;2022-08-21T13:39:34;26.60;1.00
290;DHT22;13193;48.874;9.086;2022-08-21T13:42:03;26.60;1.00
290;DHT22;13193;48.874;9.086;2022-08-21T13:44:35;26.70;1.00
290;DHT22;13193;48.874;9.086;2022-08-21T13:47:04;26.80;1.00
290;DHT22;13193;48.874;9.086;2022-08-21T13:49:36;26.80;1.00
290;DHT22;13193;48.874;9.086;2022-08-21T13:52:03;26.80;1.00
290;DHT22;13193;48.874;9.086;2022-08-21T13:54:37;27.00;1.00
290;DHT22;13193;48.874;9.086;2022-08-21T13:57:19;27.20;1.00
290;DHT22;13193;48.874;9.086;2022-08-21T13:59:45;27.30;1.00
290;DHT22;13193;48.874;9.086;2022-08-21T14:02:19;27.20;1.00
290;DHT22;13193;48.874;9.086;2022-08-21T14:04:57;27.10;1.00
290;DHT22;13193;48.874;9.086;2022-08-21T14:07:38;27.20;1.00
290;DHT22;13193;48.874;9.086;2022-08-21T14:10:11;27.20;1.00
290;DHT22;13193;48.874;9.086;2022-08-21T14:12:50;27.20;1.00
290;DHT22;13193;48.874;9.086;2022-08-21T14:15:19;27.30;1.00
290;DHT22;13193;48.874;9.086;2022-08-21T14:17:47;27.40;1.00
290;DHT22;13193;48.874;9.086;2022-08-21T14:20:27;27.60;1.00
290;DHT22;13193;48.874;9.086;2022-08-21T14:22:53;27.60;1.00
290;DHT22;13193;48.874;9.086;2022-08-21T14:28:02;27.70;1.00
290;DHT22;13193;48.874;9.086;2022-08-21T14:30:35;27.60;1.00
290;DHT22;13193;48.874;9.086;2022-08-21T14:33:02;27.70;1.00
290;DHT22;13193;48.874;9.086;2022-08-21T14:35:29;27.60;1.00
290;DHT22;13193;48.874;9.086;2022-08-21T14:37:57;27.70;1.00
290;DHT22;13193;48.874;9.086;2022-08-21T14:40:24;27.70;1.00
290;DHT22;13193;48.874;9.086;2022-08-21T14:42:53;27.70;1.00
290;DHT22;13193;48.874;9.086;2022-08-21T14:45:28;27.70;1.00
290;DHT22;13193;48.874;9.086;2022-08-21T14:47:55;27.80;1.00
290;DHT22;13193;48.874;9.086;2022-08-21T14:50:22;27.50;1.00
290;DHT22;13193;48.874;9.086;2022-08-21T14:52:48;27.40;1.00
290;DHT22;13193;48.874;9.086;2022-08-21T14:55:15;27.40;1.00
290;DHT22;13193;48.874;9.086;2022-08-21T14:57:42;27.40;1.00
290;DHT22;13193;48.874;9.086;2022-08-21T15:00:14;27.40;1.00
290;DHT22;13193;48.874;9.086;2022-08-21T15:02:43;27.50;1.00
290;DHT22;13193;48.874;9.086;2022-08-21T15:05:09;27.60;1.00
290;DHT22;13193;48.874;9.086;2022-08-21T15:07:35;27.70;1.00
290;DHT22;13193;48.874;9.086;2022-08-21T15:10:04;27.70;1.00
290;DHT22;13193;48.874;9.086;2022-08-21T15:12:30;27.60;1.00
290;DHT22;13193;48.874;9.086;2022-08-21T15:14:56;27.60;1.00
290;DHT22;13193;48.874;9.086;2022-08-21T15:17:21;27.70;1.00
290;DHT22;13193;48.874;9.086;2022-08-21T15:19:47;27.70;1.00
290;DHT22;13193;48.874;9.086;2022-08-21T15:22:13;27.70;1.00
290;DHT22;13193;48.874;9.086;2022-08-21T15:24:43;27.60;1.00
290;DHT22;13193;48.874;9.086;2022-08-21T15:27:10;27.50;1.00
290;DHT22;13193;48.874;9.086;2022-08-21T15:29:36;27.50;1.00
290;DHT22;13193;48.874;9.086;2022-08-21T15:34:47;27.60;1.00
290;DHT22;13193;48.874;9.086;2022-08-21T15:37:13;27.70;1.00
290;DHT22;13193;48.874;9.086;2022-08-21T15:39:38;27.70;1.00
290;DHT22;13193;48.874;9.086;2022-08-21T15:42:07;27.70;1.00
290;DHT22;13193;48.874;9.086;2022-08-21T15:44:33;27.80;1.00
290;DHT22;13193;48.874;9.086;2022-08-21T15:47:01;27.80;1.00
290;DHT22;13193;48.874;9.086;2022-08-21T15:49:27;27.80;1.00
290;DHT22;13193;48.874;9.086;2022-08-21T15:51:55;27.80;1.00
290;DHT22;13193;48.874;9.086;2022-08-21T15:54:21;27.70;1.00
290;DHT22;13193;48.874;9.086;2022-08-21T15:56:48;27.70;1.00
290;DHT22;13193;48.874;9.086;2022-08-21T15:59:18;27.70;1.00
290;DHT22;13193;48.874;9.086;2022-08-21T16:01:48;27.50;1.00
290;DHT22;13193;48.874;9.086;2022-08-21T16:04:25;27.50;1.00
290;DHT22;13193;48.874;9.086;2022-08-21T16:06:52;27.40;1.00
290;DHT22;13193;48.874;9.086;2022-08-21T16:09:22;27.30;1.00
290;DHT22;13193;48.874;9.086;2022-08-21T16:11:48;27.40;1.00
290;DHT22;13193;48.874;9.086;2022-08-21T16:14:15;27.30;1.00
290;DHT22;13193;48.874;9.086;2022-08-21T16:16:42;27.30;1.00
290;DHT22;13193;48.874;9.086;2022-08-21T16:19:10;27.20;1.00
290;DHT22;13193;48.874;9.086;2022-08-21T16:21:39;27.20;1.00
290;DHT22;13193;48.874;9.086;2022-08-21T16:24:05;27.20;1.00
290;DHT22;13193;48.874;9.086;2022-08-21T16:26:31;27.20;1.00
290;DHT22;13193;48.874;9.086;2022-08-21T16:29:00;27.20;1.00
290;DHT22;13193;48.874;9.086;2022-08-21T16:31:27;27.10;1.00
290;DHT22;13193;48.874;9.086;2022-08-21T16:33:54;27.10;1.00
290;DHT22;13193;48.874;9.086;2022-08-21T16:36:20;27.10;1.00
290;DHT22;13193;48.874;9.086;2022-08-21T16:38:47;27.00;1.00
290;DHT22;13193;48.874;9.086;2022-08-21T16:41:16;27.00;1.00
290;DHT22;13193;48.874;9.086;2022-08-21T16:43:43;27.00;1.00
290;DHT22;13193;48.874;9.086;2022-08-21T16:46:13;27.00;1.00
290;DHT22;13193;48.874;9.086;2022-08-21T16:48:43;27.00;1.00
290;DHT22;13193;48.874;9.086;2022-08-21T16:51:13;27.00;1.00
290;DHT22;13193;48.874;9.086;2022-08-21T16:53:40;26.90;1.00
290;DHT22;13193;48.874;9.086;2022-08-21T16:56:07;26.90;1.00
290;DHT22;13193;48.874;9.086;2022-08-21T16:58:38;26.80;1.00
290;DHT22;13193;48.874;9.086;2022-08-21T17:01:09;26.80;1.00
290;DHT22;13193;48.874;9.086;2022-08-21T17:03:39;26.80;1.00
290;DHT22;13193;48.874;9.086;2022-08-21T17:06:09;26.90;1.00
290;DHT22;13193;48.874;9.086;2022-08-21T17:08:34;26.80;1.00
290;DHT22;13193;48.874;9.086;2022-08-21T17:11:01;26.70;1.00
290;DHT22;13193;48.874;9.086;2022-08-21T17:13:27;26.70;1.00
290;DHT22;13193;48.874;9.086;2022-08-21T17:15:54;26.70;1.00
290;DHT22;13193;48.874;9.086;2022-08-21T17:18:21;26.70;1.00
290;DHT22;13193;48.874;9.086;2022-08-21T17:20:48;26.70;1.00
290;DHT22;13193;48.874;9.086;2022-08-21T17:23:15;26.70;1.00
290;DHT22;13193;48.874;9.086;2022-08-21T17:25:44;26.70;1.00
290;DHT22;13193;48.874;9.086;2022-08-21T17:28:19;26.70;1.00
290;DHT22;13193;48.874;9.086;2022-08-21T17:30:46;26.70;1.00
290;DHT22;13193;48.874;9.086;2022-08-21T17:33:16;26.70;1.00
290;DHT22;13193;48.874;9.086;2022-08-21T17:35:43;26.80;1.00
290;DHT22;13193;48.874;9.086;2022-08-21T17:38:10;26.70;1.00
290;DHT22;13193;48.874;9.086;2022-08-21T17:40:36;26.60;1.00
290;DHT22;13193;48.874;9.086;2022-08-21T17:43:02;26.60;1.00
290;DHT22;13193;48.874;9.086;2022-08-21T17:45:28;26.50;1.00
290;DHT22;13193;48.874;9.086;2022-08-21T17:47:54;26.40;1.00
290;DHT22;13193;48.874;9.086;2022-08-21T17:50:20;26.30;1.00
290;DHT22;13193;48.874;9.086;2022-08-21T17:52:46;26.30;1.00